createdAt,value
2023-03-02T00:01:34.346Z,12.35
2023-03-02T00:04:02.953Z,11.93
2023-03-02T00:06:31.774Z,11.23
2023-03-02T00:09:00.740Z,12.20
2023-03-02T00:11:30.576Z,12.45
2023-03-02T00:13:57.624Z,12.93
2023-03-02T00:16:24.670Z,12.20
2023-03-02T00:18:51.467Z,12.10
2023-03-02T00:21:18.217Z,10.75
2023-03-02T00:23:45.043Z,12.00
2023-03-02T00:26:11.750Z,11.77
2023-03-02T00:28:38.357Z,10.85
2023-03-02T00:31:06.514Z,10.70
2023-03-02T00:33:34.727Z,12.27
2023-03-02T00:36:01.885Z,11.43
2023-03-02T00:38:29.276Z,10.90
2023-03-02T00:40:56.460Z,10.73
2023-03-02T00:43:27.451Z,11.10
2023-03-02T00:45:57.255Z,11.63
2023-03-02T00:48:23.894Z,10.88
2023-03-02T00:50:50.791Z,12.10
2023-03-02T00:53:18.165Z,12.00
2023-03-02T00:55:55.868Z,12.52
2023-03-02T00:58:22.616Z,11.70
2023-03-02T01:00:49.573Z,12.35
2023-03-02T01:03:16.288Z,12.75
2023-03-02T01:05:43.136Z,12.90
2023-03-02T01:08:09.959Z,13.80
2023-03-02T01:10:37.573Z,13.40
2023-03-02T01:13:05.557Z,13.38
2023-03-02T01:15:33.853Z,13.45
2023-03-02T01:18:01.036Z,13.40
2023-03-02T01:20:28.279Z,12.77
2023-03-02T01:22:55.537Z,11.77
2023-03-02T01:25:22.204Z,12.38
2023-03-02T01:27:48.926Z,11.38
2023-03-02T01:30:16.551Z,11.90
2023-03-02T01:32:43.202Z,10.65
2023-03-02T01:35:10.310Z,11.63
2023-03-02T01:37:37.065Z,11.95
2023-03-02T01:40:06.501Z,12.20
2023-03-02T01:42:45.745Z,11.90
2023-03-02T01:47:57.646Z,12.35
2023-03-02T01:50:27.329Z,11.30
2023-03-02T01:52:55.435Z,11.15
2023-03-02T01:55:25.405Z,11.27
2023-03-02T01:57:54.629Z,10.75
2023-03-02T02:00:25.019Z,11.18
2023-03-02T02:02:53.224Z,11.27
2023-03-02T02:05:24.213Z,10.70
2023-03-02T02:07:51.206Z,10.18
2023-03-02T02:10:18.232Z,10.60
2023-03-02T02:12:44.830Z,11.57
2023-03-02T02:15:11.534Z,10.93
2023-03-02T02:17:38.244Z,12.02
2023-03-02T02:20:19.556Z,11.30
2023-03-02T02:22:59.201Z,11.45
2023-03-02T02:25:31.786Z,11.80
2023-03-02T02:27:58.517Z,11.10
2023-03-02T02:30:25.867Z,11.95
2023-03-02T02:32:55.475Z,11.77
2023-03-02T02:35:27.342Z,12.90
2023-03-02T02:38:02.979Z,12.60
2023-03-02T02:40:48.161Z,13.18
2023-03-02T02:43:17.875Z,13.43
2023-03-02T02:45:46.573Z,12.55
2023-03-02T02:48:19.490Z,12.75
2023-03-02T02:50:46.888Z,12.77
2023-03-02T02:53:19.431Z,12.77
2023-03-02T02:55:49.476Z,13.35
2023-03-02T02:58:25.531Z,11.77
2023-03-02T03:00:53.965Z,12.35
2023-03-02T03:03:39.358Z,11.77
2023-03-02T03:06:09.437Z,11.88
2023-03-02T03:08:45.644Z,10.38
2023-03-02T03:11:23.394Z,10.63
2023-03-02T03:14:02.065Z,10.63
2023-03-02T03:16:31.410Z,10.20
2023-03-02T03:19:20.139Z,10.95
2023-03-02T03:21:50.650Z,10.97
2023-03-02T03:24:17.823Z,10.65
2023-03-02T03:26:45.219Z,10.00
2023-03-02T03:29:13.464Z,10.48
2023-03-02T03:31:40.594Z,9.75
2023-03-02T03:34:08.002Z,10.05
2023-03-02T03:36:35.814Z,9.75
2023-03-02T03:39:05.627Z,10.38
2023-03-02T03:41:33.196Z,9.43
2023-03-02T03:44:00.073Z,11.00
2023-03-02T03:46:27.386Z,9.82
2023-03-02T03:48:54.123Z,9.52
2023-03-02T03:51:20.812Z,10.20
2023-03-02T03:53:59.642Z,10.23
2023-03-02T03:56:28.316Z,10.35
2023-03-02T03:59:06.196Z,10.85
2023-03-02T04:01:41.928Z,10.98
2023-03-02T04:04:15.912Z,10.70
2023-03-02T04:06:43.451Z,10.93
2023-03-02T04:09:12.351Z,10.13
2023-03-02T04:11:40.958Z,10.38
2023-03-02T04:14:08.981Z,11.23
2023-03-02T04:16:36.894Z,10.85
2023-03-02T04:19:09.556Z,10.85
2023-03-02T04:21:41.545Z,11.05
2023-03-02T04:24:09.960Z,9.98
2023-03-02T04:26:38.282Z,10.93
2023-03-02T04:29:05.529Z,10.10
2023-03-02T04:31:32.916Z,10.07
2023-03-02T04:34:00.410Z,10.35
2023-03-02T04:36:27.524Z,10.85
2023-03-02T04:38:54.514Z,10.75
2023-03-02T04:41:21.912Z,10.80
2023-03-02T04:43:48.909Z,10.77
2023-03-02T04:46:22.206Z,11.18
2023-03-02T04:48:48.903Z,10.98
2023-03-02T04:51:35.552Z,10.55
2023-03-02T04:54:05.547Z,10.52
2023-03-02T04:56:32.838Z,10.35
2023-03-02T04:58:59.655Z,10.63
2023-03-02T05:01:26.858Z,11.68
2023-03-02T05:03:53.893Z,11.10
2023-03-02T05:06:21.915Z,11.73
2023-03-02T05:08:48.685Z,10.82
2023-03-02T05:11:22.040Z,12.55
2023-03-02T05:13:54.575Z,10.73
2023-03-02T05:16:21.826Z,11.95
2023-03-02T05:18:48.532Z,12.35
2023-03-02T05:21:15.952Z,12.13
2023-03-02T05:23:43.022Z,11.55
2023-03-02T05:26:10.175Z,11.85
2023-03-02T05:28:36.853Z,11.38
2023-03-02T05:31:03.814Z,12.13
2023-03-02T05:33:31.028Z,12.00
2023-03-02T05:35:57.974Z,11.32
2023-03-02T05:38:25.136Z,12.25
2023-03-02T05:40:51.731Z,12.00
2023-03-02T05:43:20.978Z,12.15
2023-03-02T05:45:47.652Z,11.38
2023-03-02T05:48:14.542Z,12.77
2023-03-02T05:50:41.837Z,12.20
2023-03-02T05:53:08.944Z,12.57
2023-03-02T05:55:38.288Z,12.30
2023-03-02T06:00:36.077Z,12.90
2023-03-02T06:03:02.895Z,12.50
2023-03-02T06:05:29.559Z,11.32
2023-03-02T06:07:56.649Z,13.40
2023-03-02T06:10:23.618Z,12.68
2023-03-02T06:12:50.582Z,12.30
2023-03-02T06:15:17.284Z,11.73
2023-03-02T06:17:44.269Z,12.02
2023-03-02T06:20:11.900Z,12.68
2023-03-02T06:22:41.366Z,13.02
2023-03-02T06:25:14.106Z,14.30
2023-03-02T06:27:41.846Z,12.70
2023-03-02T06:30:10.809Z,13.35
2023-03-02T06:32:37.530Z,13.90
2023-03-02T06:35:06.150Z,14.05
2023-03-02T06:37:33.021Z,13.00
2023-03-02T06:39:59.891Z,13.57
2023-03-02T06:42:27.966Z,13.40
2023-03-02T06:44:55.175Z,12.55
2023-03-02T06:47:23.295Z,14.10
2023-03-02T06:49:49.963Z,14.05
2023-03-02T06:52:16.911Z,13.65
2023-03-02T06:54:43.670Z,13.43
2023-03-02T06:57:10.530Z,13.25
2023-03-02T06:59:37.116Z,14.43
2023-03-02T07:02:03.986Z,14.02
2023-03-02T07:04:30.576Z,14.65
2023-03-02T07:06:57.238Z,13.55
2023-03-02T07:09:24.244Z,13.65
2023-03-02T07:11:50.953Z,14.57
2023-03-02T07:14:17.589Z,13.95
2023-03-02T07:16:44.327Z,13.20
2023-03-02T07:19:14.133Z,13.85
2023-03-02T07:21:41.428Z,14.13
2023-03-02T07:24:08.264Z,13.75
2023-03-02T07:26:35.037Z,14.32
2023-03-02T07:29:01.895Z,13.70
2023-03-02T07:31:29.156Z,13.48
2023-03-02T07:33:55.810Z,13.57
2023-03-02T07:36:22.367Z,12.98
2023-03-02T07:38:49.033Z,14.20
2023-03-02T07:41:17.005Z,13.57
2023-03-02T07:43:43.910Z,13.32
2023-03-02T07:46:10.821Z,14.20
2023-03-02T07:48:37.545Z,13.95
2023-03-02T07:51:05.903Z,14.05
2023-03-02T07:53:33.041Z,13.05
2023-03-02T07:56:01.427Z,12.90
2023-03-02T07:58:28.322Z,13.82
2023-03-02T08:00:54.924Z,13.82
2023-03-02T08:03:21.640Z,15.10
2023-03-02T08:05:48.249Z,14.82
2023-03-02T08:08:14.917Z,13.88
2023-03-02T08:10:41.535Z,12.90
2023-03-02T08:13:08.174Z,14.38
2023-03-02T08:15:34.816Z,14.43
2023-03-02T08:18:01.458Z,14.57
2023-03-02T08:20:28.272Z,13.63
2023-03-02T08:22:55.108Z,13.70
2023-03-02T08:25:21.834Z,13.98
2023-03-02T08:27:48.691Z,14.07
2023-03-02T08:30:15.610Z,15.05
2023-03-02T08:32:42.436Z,14.10
2023-03-02T08:35:09.588Z,14.18
2023-03-02T08:37:36.334Z,13.70
2023-03-02T08:40:03.857Z,14.07
2023-03-02T08:42:30.476Z,14.32
2023-03-02T08:44:57.107Z,14.20
2023-03-02T08:47:23.717Z,14.32
2023-03-02T08:49:51.280Z,15.27
2023-03-02T08:52:17.921Z,14.63
2023-03-02T08:54:44.618Z,15.38
2023-03-02T08:57:11.837Z,15.45
2023-03-02T08:59:38.515Z,15.50
2023-03-02T09:02:05.383Z,15.63
2023-03-02T09:04:32.276Z,15.60
2023-03-02T09:06:58.940Z,15.77
2023-03-02T09:09:25.591Z,16.90
2023-03-02T09:11:52.291Z,16.23
2023-03-02T09:14:18.908Z,15.75
2023-03-02T09:16:46.253Z,15.27
2023-03-02T09:19:13.894Z,16.60
2023-03-02T09:21:40.513Z,16.80
2023-03-02T09:24:07.301Z,17.13
2023-03-02T09:26:34.213Z,16.55
2023-03-02T09:29:00.912Z,17.10
2023-03-02T09:31:30.126Z,15.40
2023-03-02T09:36:25.629Z,15.45
2023-03-02T09:38:52.883Z,16.43
2023-03-02T09:41:19.614Z,15.82
2023-03-02T09:44:02.014Z,16.85
2023-03-02T09:46:49.745Z,16.60
2023-03-02T09:49:38.199Z,15.63
2023-03-02T09:52:28.309Z,16.65
2023-03-02T09:54:56.280Z,16.13
2023-03-02T09:57:27.161Z,16.15
2023-03-02T10:00:18.321Z,15.38
2023-03-02T10:02:58.777Z,16.20
2023-03-02T10:05:41.920Z,16.13
2023-03-02T10:10:39.867Z,16.27
2023-03-02T10:13:28.256Z,16.65
2023-03-02T10:15:58.006Z,15.20
2023-03-02T10:18:35.957Z,15.13
2023-03-02T10:21:24.267Z,14.63
2023-03-02T10:23:57.385Z,14.90
2023-03-02T10:26:46.787Z,14.88
2023-03-02T10:32:13.491Z,13.80
2023-03-02T10:34:40.113Z,12.02
2023-03-02T10:37:15.432Z,12.30
2023-03-02T10:39:42.168Z,12.32
2023-03-02T10:42:17.076Z,13.00
2023-03-02T10:44:51.090Z,12.50
2023-03-02T10:47:35.564Z,11.63
2023-03-02T10:50:02.194Z,12.45
2023-03-02T10:52:29.465Z,12.27
2023-03-02T10:55:14.331Z,11.52
2023-03-02T10:57:43.954Z,12.70
2023-03-02T11:00:25.225Z,11.48
2023-03-02T11:03:20.316Z,11.15
2023-03-02T11:05:47.814Z,11.25
2023-03-02T11:08:23.457Z,10.77
2023-03-02T11:10:56.900Z,9.93
2023-03-02T11:13:31.180Z,10.77
2023-03-02T11:16:26.234Z,10.07
2023-03-02T11:18:59.144Z,10.38
2023-03-02T11:21:41.128Z,10.65
2023-03-02T11:24:15.311Z,10.88
2023-03-02T11:26:53.738Z,10.43
2023-03-02T11:29:35.758Z,11.30
2023-03-02T11:32:08.342Z,10.75
2023-03-02T11:34:42.465Z,10.50
2023-03-02T11:37:23.125Z,10.45
2023-03-02T11:39:56.229Z,11.32
2023-03-02T11:42:44.251Z,10.50
2023-03-02T11:45:13.794Z,11.32
2023-03-02T11:47:57.573Z,10.68
2023-03-02T11:50:31.590Z,11.75
2023-03-02T11:55:35.765Z,10.27
2023-03-02T11:58:04.789Z,10.80
2023-03-02T12:00:39.785Z,10.13
2023-03-02T12:03:15.349Z,10.55
2023-03-02T12:05:46.961Z,10.27
2023-03-02T12:08:19.346Z,10.45
2023-03-02T12:11:26.188Z,9.70
2023-03-02T12:13:52.746Z,9.80
2023-03-02T12:16:41.058Z,8.88
2023-03-02T12:19:25.999Z,9.40
2023-03-02T12:22:02.248Z,9.23
2023-03-02T12:24:32.568Z,9.20
2023-03-02T12:27:16.601Z,8.30
2023-03-02T12:29:46.104Z,8.40
2023-03-02T12:34:59.862Z,9.15
2023-03-02T12:37:31.917Z,9.07
2023-03-02T12:40:10.595Z,7.88
2023-03-02T12:43:01.396Z,8.27
2023-03-02T12:45:36.678Z,8.98
2023-03-02T12:48:15.639Z,7.47
2023-03-02T12:50:42.950Z,7.63
2023-03-02T12:53:19.405Z,7.88
2023-03-02T12:55:47.037Z,7.43
2023-03-02T12:58:20.881Z,8.02
2023-03-02T13:00:57.114Z,7.65
2023-03-02T13:03:26.370Z,7.15
2023-03-02T13:06:04.185Z,7.88
2023-03-02T13:08:32.047Z,6.47
2023-03-02T13:11:01.652Z,7.07
2023-03-02T13:13:43.062Z,6.93
2023-03-02T13:16:23.266Z,6.80
2023-03-02T13:18:53.907Z,7.15
2023-03-02T13:21:22.127Z,6.53
2023-03-02T13:23:51.900Z,6.65
2023-03-02T13:26:29.141Z,7.63
2023-03-02T13:29:14.769Z,6.97
2023-03-02T13:31:41.453Z,7.13
2023-03-02T13:34:24.575Z,6.20
2023-03-02T13:36:52.072Z,6.78
2023-03-02T13:39:28.271Z,6.55
2023-03-02T13:41:59.012Z,5.68
2023-03-02T13:44:33.950Z,6.32
2023-03-02T13:47:01.790Z,6.22
2023-03-02T13:49:31.365Z,5.63
2023-03-02T13:52:20.095Z,5.35
2023-03-02T13:54:48.015Z,5.78
2023-03-02T13:57:25.200Z,5.35
2023-03-02T13:59:51.894Z,5.50
2023-03-02T14:02:25.454Z,6.00
2023-03-02T14:04:52.926Z,6.07
2023-03-02T14:07:20.964Z,6.53
2023-03-02T14:09:48.640Z,5.25
2023-03-02T14:12:27.370Z,5.50
2023-03-02T14:14:57.438Z,5.45
2023-03-02T14:17:26.148Z,5.32
2023-03-02T14:19:54.949Z,4.30
2023-03-02T14:22:25.219Z,5.28
2023-03-02T14:24:51.931Z,4.82
2023-03-02T14:27:19.390Z,5.10
2023-03-02T14:29:46.924Z,5.03
2023-03-02T14:32:15.390Z,5.22
2023-03-02T14:34:43.381Z,5.30
2023-03-02T14:37:15.138Z,5.03
2023-03-02T14:39:45.740Z,6.18
2023-03-02T14:42:15.390Z,5.53
2023-03-02T14:44:43.602Z,6.10
2023-03-02T14:47:10.620Z,6.20
2023-03-02T14:49:38.162Z,6.40
2023-03-02T14:52:28.076Z,6.22
2023-03-02T14:54:57.941Z,7.50
2023-03-02T14:57:27.673Z,7.10
2023-03-02T14:59:56.251Z,6.47
2023-03-02T15:02:26.744Z,6.77
2023-03-02T15:04:57.065Z,7.78
2023-03-02T15:07:28.300Z,6.47
2023-03-02T15:09:57.369Z,6.35
2023-03-02T15:12:24.540Z,6.50
2023-03-02T15:14:51.711Z,6.53
2023-03-02T15:17:18.430Z,6.50
2023-03-02T15:19:45.110Z,6.72
2023-03-02T15:22:13.198Z,6.53
2023-03-02T15:24:39.937Z,6.75
2023-03-02T15:27:06.609Z,7.60
2023-03-02T15:29:33.725Z,7.68
2023-03-02T15:32:00.479Z,7.22
2023-03-02T15:34:27.180Z,7.63
2023-03-02T15:36:53.807Z,8.07
2023-03-02T15:39:20.514Z,8.38
2023-03-02T15:41:47.152Z,8.80
2023-03-02T15:44:23.011Z,8.13
2023-03-02T15:46:51.785Z,7.47
2023-03-02T15:49:22.876Z,7.60
2023-03-02T15:51:51.995Z,7.80
2023-03-02T15:54:18.899Z,8.60
2023-03-02T15:56:45.542Z,8.75
2023-03-02T15:59:12.166Z,9.18
2023-03-02T16:01:38.885Z,8.65
2023-03-02T16:04:05.628Z,9.30
2023-03-02T16:06:32.282Z,9.27
2023-03-02T16:08:58.901Z,9.27
2023-03-02T16:11:25.646Z,8.70
2023-03-02T16:13:52.865Z,8.95
2023-03-02T16:16:21.147Z,8.82
2023-03-02T16:18:51.886Z,9.57
2023-03-02T16:21:18.911Z,8.27
2023-03-02T16:23:45.752Z,9.25
2023-03-02T16:26:16.740Z,8.70
2023-03-02T16:28:43.456Z,10.18
2023-03-02T16:31:17.654Z,10.02
2023-03-02T16:33:45.393Z,9.90
2023-03-02T16:36:13.046Z,10.43
2023-03-02T16:38:40.472Z,9.13
2023-03-02T16:41:16.352Z,9.68
2023-03-02T16:43:49.224Z,11.75
2023-03-02T16:46:17.066Z,11.02
2023-03-02T16:48:46.380Z,10.43
2023-03-02T16:51:13.455Z,9.85
2023-03-02T16:53:43.345Z,12.00
2023-03-02T16:56:11.982Z,10.60
2023-03-02T16:58:40.137Z,9.20
2023-03-02T17:01:09.022Z,10.70
2023-03-02T17:03:36.026Z,10.73
2023-03-02T17:06:03.053Z,10.93
2023-03-02T17:08:50.850Z,18.33
2023-03-02T17:11:17.980Z,12.77
2023-03-02T17:13:44.709Z,25.23
2023-03-02T17:16:11.990Z,12.82
2023-03-02T17:18:38.905Z,12.63
2023-03-02T17:21:05.900Z,13.00
2023-03-02T17:23:33.192Z,13.93
2023-03-02T17:26:00.337Z,12.98
2023-03-02T17:28:27.063Z,12.95
2023-03-02T17:30:53.763Z,12.85
2023-03-02T17:33:20.561Z,12.88
2023-03-02T17:35:47.545Z,12.88
2023-03-02T17:38:15.355Z,13.00
2023-03-02T17:40:43.122Z,13.55
2023-03-02T17:43:10.282Z,14.55
2023-03-02T17:45:36.926Z,13.88
2023-03-02T17:48:03.700Z,13.27
2023-03-02T17:50:33.765Z,13.30
2023-03-02T17:53:00.785Z,14.15
2023-03-02T17:55:27.754Z,14.27
2023-03-02T17:57:54.446Z,14.50
2023-03-02T18:00:23.226Z,13.93
2023-03-02T18:02:51.030Z,13.23
2023-03-02T18:05:18.196Z,13.27
2023-03-02T18:07:45.217Z,14.40
2023-03-02T18:10:12.567Z,13.40
2023-03-02T18:12:39.457Z,14.48
2023-03-02T18:15:06.789Z,15.35
2023-03-02T18:17:33.448Z,14.48
2023-03-02T18:20:00.144Z,13.52
2023-03-02T18:22:26.873Z,15.90
2023-03-02T18:24:53.590Z,15.02
2023-03-02T18:27:20.634Z,14.85
2023-03-02T18:29:47.363Z,18.70
2023-03-02T18:32:14.421Z,19.77
2023-03-02T18:34:41.441Z,15.95
2023-03-02T18:37:08.566Z,16.42
2023-03-02T18:39:37.688Z,20.25
2023-03-02T18:42:05.371Z,16.40
2023-03-02T18:44:32.577Z,17.17
2023-03-02T18:47:00.742Z,17.63
2023-03-02T18:49:28.022Z,16.90
2023-03-02T18:51:56.591Z,16.35
2023-03-02T18:54:24.561Z,16.53
2023-03-02T18:56:51.544Z,17.42
2023-03-02T18:59:18.432Z,16.88
2023-03-02T19:01:46.300Z,17.27
2023-03-02T19:04:14.340Z,18.33
2023-03-02T19:06:42.323Z,18.60
2023-03-02T19:09:09.556Z,18.75
2023-03-02T19:11:36.456Z,19.17
2023-03-02T19:14:03.454Z,19.23
2023-03-02T19:16:30.132Z,18.65
2023-03-02T19:18:56.902Z,19.67
2023-03-02T19:21:23.604Z,21.02
2023-03-02T19:23:50.235Z,19.48
2023-03-02T19:26:16.916Z,20.17
2023-03-02T19:28:43.639Z,21.52
2023-03-02T19:31:11.520Z,22.40
2023-03-02T19:33:40.063Z,21.60
2023-03-02T19:36:07.501Z,21.83
2023-03-02T19:38:37.842Z,22.45
2023-03-02T19:41:04.931Z,23.95
2023-03-02T19:43:33.016Z,21.95
2023-03-02T19:46:00.859Z,25.70
2023-03-02T19:48:29.724Z,24.80
2023-03-02T19:50:56.641Z,23.75
2023-03-02T19:53:23.368Z,24.25
2023-03-02T19:55:51.518Z,26.05
2023-03-02T19:58:19.812Z,23.60
2023-03-02T20:00:47.003Z,25.00
2023-03-02T20:03:13.837Z,23.08
2023-03-02T20:05:40.590Z,23.42
2023-03-02T20:08:07.822Z,26.15
2023-03-02T20:10:34.704Z,29.75
2023-03-02T20:13:01.702Z,27.77
2023-03-02T20:15:31.072Z,29.85
2023-03-02T20:20:27.040Z,28.85
2023-03-02T20:22:53.770Z,26.20
2023-03-02T20:25:21.460Z,27.40
2023-03-02T20:27:49.356Z,25.60
2023-03-02T20:30:22.948Z,28.27
2023-03-02T20:32:50.041Z,28.80
2023-03-02T20:35:16.920Z,26.33
2023-03-02T20:37:43.615Z,26.77
2023-03-02T20:40:31.130Z,27.20
2023-03-02T20:42:58.382Z,29.45
2023-03-02T20:45:25.792Z,27.52
2023-03-02T20:47:52.638Z,28.80
2023-03-02T20:50:26.095Z,27.67
2023-03-02T20:52:53.005Z,29.75
2023-03-02T20:55:19.930Z,28.60
2023-03-02T20:57:48.654Z,29.92
2023-03-02T21:00:20.846Z,30.40
2023-03-02T21:02:48.459Z,30.38
2023-03-02T21:05:17.461Z,30.85
2023-03-02T21:07:45.516Z,31.23
2023-03-02T21:10:16.184Z,30.73
2023-03-02T21:12:43.052Z,31.92
2023-03-02T21:15:10.619Z,28.85
2023-03-02T21:17:37.619Z,32.38
2023-03-02T21:20:05.965Z,31.08
2023-03-02T21:22:33.195Z,29.92
2023-03-02T21:25:00.045Z,29.45
2023-03-02T21:27:26.677Z,30.15
2023-03-02T21:29:53.355Z,28.48
2023-03-02T21:32:20.053Z,30.20
2023-03-02T21:34:46.773Z,31.98
2023-03-02T21:37:13.391Z,30.95
2023-03-02T21:39:40.027Z,29.95
2023-03-02T21:42:07.003Z,30.50
2023-03-02T21:44:33.636Z,33.85
2023-03-02T21:47:00.234Z,32.38
2023-03-02T21:49:27.054Z,34.03
2023-03-02T21:51:53.672Z,33.63
2023-03-02T21:54:20.400Z,31.70
2023-03-02T21:56:47.092Z,36.40
2023-03-02T21:59:13.805Z,35.75
2023-03-02T22:01:40.798Z,36.10
2023-03-02T22:04:07.415Z,36.47
2023-03-02T22:06:37.620Z,34.80
2023-03-02T22:09:04.845Z,37.75
2023-03-02T22:11:35.940Z,38.80
2023-03-02T22:14:14.478Z,40.47
2023-03-02T22:16:43.262Z,43.67
2023-03-02T22:19:32.782Z,46.17
2023-03-02T22:22:01.053Z,46.35
2023-03-02T22:24:30.385Z,49.03
2023-03-02T22:27:22.247Z,51.35
2023-03-02T22:29:53.116Z,52.95
2023-03-02T22:32:26.390Z,55.72
2023-03-02T22:35:02.726Z,49.83
2023-03-02T22:37:33.651Z,58.08
2023-03-02T22:40:27.742Z,54.47
2023-03-02T22:43:08.630Z,55.38
2023-03-02T22:45:35.612Z,49.85
2023-03-02T22:48:02.343Z,52.33
2023-03-02T22:50:30.825Z,54.30
2023-03-02T22:53:00.123Z,55.43
2023-03-02T22:58:25.515Z,52.00
2023-03-02T23:00:52.500Z,59.10
2023-03-02T23:03:22.043Z,53.95
2023-03-02T23:05:51.759Z,55.08
2023-03-02T23:08:26.633Z,64.30
2023-03-02T23:10:57.872Z,59.22
2023-03-02T23:13:30.324Z,54.53
2023-03-02T23:15:57.530Z,52.78
2023-03-02T23:18:27.319Z,56.83
2023-03-02T23:20:54.360Z,64.78
2023-03-02T23:23:23.183Z,74.50
2023-03-02T23:25:50.614Z,63.42
2023-03-02T23:28:17.267Z,67.03
2023-03-02T23:30:44.077Z,70.80
2023-03-02T23:33:10.806Z,66.38
2023-03-02T23:35:37.472Z,71.85
2023-03-02T23:38:04.143Z,77.30
2023-03-02T23:40:30.848Z,71.35
2023-03-02T23:42:57.455Z,75.07
2023-03-02T23:45:24.175Z,73.40
2023-03-02T23:47:50.770Z,72.38
2023-03-02T23:50:17.688Z,62.90
2023-03-02T23:52:44.348Z,81.43
2023-03-02T23:55:11.390Z,80.30
2023-03-02T23:57:38.003Z,85.57
